sensor_id;sensor_type;location;lat;lon;timestamp;temperature;humidity
52397;DHT22;38322;53.108;6.308;2023-07-28T05:01:56;17.70;99.90
52397;DHT22;38322;53.108;6.308;2023-07-28T05:04:22;17.80;99.90
52397;DHT22;38322;53.108;6.308;2023-07-28T05:06:48;17.80;99.90
52397;DHT22;38322;53.108;6.308;2023-07-28T05:09:14;17.90;99.90
52397;DHT22;38322;53.108;6.308;2023-07-28T05:11:40;17.80;99.90
52397;DHT22;38322;53.108;6.308;2023-07-28T05:14:05;17.90;99.90
52397;DHT22;38322;53.108;6.308;2023-07-28T05:16:34;17.80;99.90
52397;DHT22;38322;53.108;6.308;2023-07-28T05:19:00;17.80;99.90
52397;DHT22;38322;53.108;6.308;2023-07-28T05:21:26;17.80;99.90
52397;DHT22;38322;53.108;6.308;2023-07-28T05:23:52;17.90;99.90
52397;DHT22;38322;53.108;6.308;2023-07-28T05:26:17;18.00;99.90
52397;DHT22;38322;53.108;6.308;2023-07-28T05:28:43;17.90;99.90
52397;DHT22;38322;53.108;6.308;2023-07-28T05:31:09;18.00;99.90
52397;DHT22;38322;53.108;6.308;2023-07-28T05:33:38;18.00;99.90
52397;DHT22;38322;53.108;6.308;2023-07-28T05:36:04;18.10;99.90
52397;DHT22;38322;53.108;6.308;2023-07-28T05:38:30;18.10;99.90
52397;DHT22;38322;53.108;6.308;2023-07-28T05:41:00;18.00;99.90
52397;DHT22;38322;53.108;6.308;2023-07-28T05:43:27;18.10;99.90
52397;DHT22;38322;53.108;6.308;2023-07-28T05:45:53;18.00;99.90
52397;DHT22;38322;53.108;6.308;2023-07-28T05:48:18;18.00;99.90
52397;DHT22;38322;53.108;6.308;2023-07-28T05:50:44;18.00;99.90
52397;DHT22;38322;53.108;6.308;2023-07-28T05:53:10;18.10;99.90
52397;DHT22;38322;53.108;6.308;2023-07-28T05:55:36;18.10;99.90
52397;DHT22;38322;53.108;6.308;2023-07-28T05:58:02;18.00;99.90
52397;DHT22;38322;53.108;6.308;2023-07-28T06:00:28;18.10;99.90
52397;DHT22;38322;53.108;6.308;2023-07-28T06:02:53;18.10;99.90
52397;DHT22;38322;53.108;6.308;2023-07-28T06:05:19;18.10;99.90
52397;DHT22;38322;53.108;6.308;2023-07-28T06:07:45;18.20;99.90
52397;DHT22;38322;53.108;6.308;2023-07-28T06:10:11;18.20;99.90
52397;DHT22;38322;53.108;6.308;2023-07-28T06:12:37;18.30;99.90
52397;DHT22;38322;53.108;6.308;2023-07-28T06:15:03;18.20;99.90
52397;DHT22;38322;53.108;6.308;2023-07-28T06:17:29;18.30;99.90
52397;DHT22;38322;53.108;6.308;2023-07-28T06:19:54;18.30;99.90
52397;DHT22;38322;53.108;6.308;2023-07-28T06:22:20;18.40;99.90
52397;DHT22;38322;53.108;6.308;2023-07-28T06:24:46;18.40;99.90
52397;DHT22;38322;53.108;6.308;2023-07-28T06:27:12;18.40;99.90
52397;DHT22;38322;53.108;6.308;2023-07-28T06:29:38;18.30;99.90
52397;DHT22;38322;53.108;6.308;2023-07-28T06:32:04;18.30;99.90
52397;DHT22;38322;53.108;6.308;2023-07-28T06:34:31;18.20;99.90
52397;DHT22;38322;53.108;6.308;2023-07-28T06:36:57;18.20;99.90
52397;DHT22;38322;53.108;6.308;2023-07-28T06:39:23;18.20;99.90
52397;DHT22;38322;53.108;6.308;2023-07-28T06:41:50;18.30;99.90
52397;DHT22;38322;53.108;6.308;2023-07-28T06:44:16;18.30;99.90
52397;DHT22;38322;53.108;6.308;2023-07-28T06:46:43;18.40;99.90
52397;DHT22;38322;53.108;6.308;2023-07-28T06:49:09;18.40;99.90
52397;DHT22;38322;53.108;6.308;2023-07-28T06:51:34;18.50;99.90
52397;DHT22;38322;53.108;6.308;2023-07-28T06:54:00;18.50;99.90
52397;DHT22;38322;53.108;6.308;2023-07-28T06:56:26;18.60;99.90
52397;DHT22;38322;53.108;6.308;2023-07-28T06:58:52;18.50;99.90
52397;DHT22;38322;53.108;6.308;2023-07-28T07:01:18;18.60;99.90
52397;DHT22;38322;53.108;6.308;2023-07-28T07:03:44;18.60;99.90
52397;DHT22;38322;53.108;6.308;2023-07-28T07:06:10;18.60;99.90
52397;DHT22;38322;53.108;6.308;2023-07-28T07:08:36;18.70;99.90
52397;DHT22;38322;53.108;6.308;2023-07-28T07:11:01;18.70;99.90
52397;DHT22;38322;53.108;6.308;2023-07-28T07:13:27;18.70;99.90
52397;DHT22;38322;53.108;6.308;2023-07-28T07:15:53;18.70;99.90
52397;DHT22;38322;53.108;6.308;2023-07-28T07:18:19;18.70;99.90
52397;DHT22;38322;53.108;6.308;2023-07-28T07:20:45;18.70;99.90
52397;DHT22;38322;53.108;6.308;2023-07-28T07:23:11;18.80;99.90
52397;DHT22;38322;53.108;6.308;2023-07-28T07:25:37;18.70;99.90
52397;DHT22;38322;53.108;6.308;2023-07-28T07:28:03;18.70;99.90
52397;DHT22;38322;53.108;6.308;2023-07-28T07:30:31;18.70;99.90
52397;DHT22;38322;53.108;6.308;2023-07-28T07:32:57;18.70;99.90
52397;DHT22;38322;53.108;6.308;2023-07-28T07:35:23;18.80;99.90
52397;DHT22;38322;53.108;6.308;2023-07-28T07:37:49;18.80;99.90
52397;DHT22;38322;53.108;6.308;2023-07-28T07:40:15;18.80;99.90
52397;DHT22;38322;53.108;6.308;2023-07-28T07:42:46;18.90;99.90
52397;DHT22;38322;53.108;6.308;2023-07-28T07:45:13;18.90;99.90
52397;DHT22;38322;53.108;6.308;2023-07-28T07:47:40;19.00;99.90
52397;DHT22;38322;53.108;6.308;2023-07-28T07:50:08;19.10;99.90
52397;DHT22;38322;53.108;6.308;2023-07-28T07:52:38;19.10;99.90
52397;DHT22;38322;53.108;6.308;2023-07-28T07:55:04;19.20;99.90
52397;DHT22;38322;53.108;6.308;2023-07-28T07:57:30;19.20;99.90
52397;DHT22;38322;53.108;6.308;2023-07-28T07:59:58;19.20;99.90
52397;DHT22;38322;53.108;6.308;2023-07-28T08:02:24;19.30;99.90
52397;DHT22;38322;53.108;6.308;2023-07-28T08:04:52;19.30;99.90
52397;DHT22;38322;53.108;6.308;2023-07-28T08:07:19;19.40;99.90
52397;DHT22;38322;53.108;6.308;2023-07-28T08:09:45;19.50;99.90
52397;DHT22;38322;53.108;6.308;2023-07-28T08:12:11;19.60;99.90
52397;DHT22;38322;53.108;6.308;2023-07-28T08:14:38;19.70;99.90
52397;DHT22;38322;53.108;6.308;2023-07-28T08:17:04;19.70;99.90
52397;DHT22;38322;53.108;6.308;2023-07-28T08:19:29;19.80;99.90
52397;DHT22;38322;53.108;6.308;2023-07-28T08:21:55;19.90;99.90
52397;DHT22;38322;53.108;6.308;2023-07-28T08:24:21;20.00;99.90
52397;DHT22;38322;53.108;6.308;2023-07-28T08:26:47;19.90;99.90
52397;DHT22;38322;53.108;6.308;2023-07-28T08:29:13;20.00;99.90
52397;DHT22;38322;53.108;6.308;2023-07-28T08:31:39;20.10;99.90
52397;DHT22;38322;53.108;6.308;2023-07-28T08:34:05;20.30;99.90
52397;DHT22;38322;53.108;6.308;2023-07-28T08:36:30;20.40;99.90
52397;DHT22;38322;53.108;6.308;2023-07-28T08:38:56;20.30;99.90
52397;DHT22;38322;53.108;6.308;2023-07-28T08:41:22;20.30;99.90
52397;DHT22;38322;53.108;6.308;2023-07-28T08:43:48;20.20;99.90
52397;DHT22;38322;53.108;6.308;2023-07-28T08:46:16;20.20;99.90
52397;DHT22;38322;53.108;6.308;2023-07-28T08:48:43;20.20;99.90
52397;DHT22;38322;53.108;6.308;2023-07-28T08:51:10;20.10;99.90
52397;DHT22;38322;53.108;6.308;2023-07-28T08:53:37;20.20;99.90
52397;DHT22;38322;53.108;6.308;2023-07-28T08:56:04;20.20;99.90
52397;DHT22;38322;53.108;6.308;2023-07-28T08:58:30;20.30;99.90
52397;DHT22;38322;53.108;6.308;2023-07-28T09:00:56;20.40;99.90
52397;DHT22;38322;53.108;6.308;2023-07-28T09:03:26;20.30;99.90
52397;DHT22;38322;53.108;6.308;2023-07-28T09:05:59;20.30;99.90
52397;DHT22;38322;53.108;6.308;2023-07-28T09:08:26;20.40;99.90
52397;DHT22;38322;53.108;6.308;2023-07-28T09:10:52;20.50;99.90
52397;DHT22;38322;53.108;6.308;2023-07-28T09:13:20;20.50;99.90
52397;DHT22;38322;53.108;6.308;2023-07-28T09:15:46;20.60;99.90
52397;DHT22;38322;53.108;6.308;2023-07-28T09:18:14;20.80;99.90
52397;DHT22;38322;53.108;6.308;2023-07-28T09:20:41;20.90;99.90
52397;DHT22;38322;53.108;6.308;2023-07-28T09:23:08;20.90;99.90
52397;DHT22;38322;53.108;6.308;2023-07-28T09:25:36;21.00;99.90
52397;DHT22;38322;53.108;6.308;2023-07-28T09:28:02;21.00;99.90
52397;DHT22;38322;53.108;6.308;2023-07-28T09:30:49;21.00;99.90
52397;DHT22;38322;53.108;6.308;2023-07-28T09:33:29;20.90;99.90
52397;DHT22;38322;53.108;6.308;2023-07-28T09:35:56;20.80;99.90
52397;DHT22;38322;53.108;6.308;2023-07-28T09:38:22;20.60;99.90
52397;DHT22;38322;53.108;6.308;2023-07-28T09:40:50;20.60;99.90
52397;DHT22;38322;53.108;6.308;2023-07-28T09:43:16;20.70;99.90
52397;DHT22;38322;53.108;6.308;2023-07-28T09:45:42;20.60;99.90
52397;DHT22;38322;53.108;6.308;2023-07-28T09:48:09;20.70;99.90
52397;DHT22;38322;53.108;6.308;2023-07-28T09:50:38;20.70;99.90
52397;DHT22;38322;53.108;6.308;2023-07-28T09:53:04;20.80;99.90
52397;DHT22;38322;53.108;6.308;2023-07-28T09:55:38;20.70;99.90
52397;DHT22;38322;53.108;6.308;2023-07-28T09:58:05;20.70;99.90
52397;DHT22;38322;53.108;6.308;2023-07-28T10:00:33;20.70;99.90
52397;DHT22;38322;53.108;6.308;2023-07-28T10:03:01;20.90;99.90
52397;DHT22;38322;53.108;6.308;2023-07-28T10:05:27;21.00;99.90
52397;DHT22;38322;53.108;6.308;2023-07-28T10:07:55;21.00;99.90
52397;DHT22;38322;53.108;6.308;2023-07-28T10:10:21;21.00;99.90
52397;DHT22;38322;53.108;6.308;2023-07-28T10:12:49;21.10;99.90
52397;DHT22;38322;53.108;6.308;2023-07-28T10:15:17;21.20;99.90
52397;DHT22;38322;53.108;6.308;2023-07-28T10:17:49;21.40;99.90
52397;DHT22;38322;53.108;6.308;2023-07-28T10:20:30;21.50;99.90
52397;DHT22;38322;53.108;6.308;2023-07-28T10:23:22;21.40;99.90
52397;DHT22;38322;53.108;6.308;2023-07-28T10:25:55;21.40;99.90
52397;DHT22;38322;53.108;6.308;2023-07-28T10:28:31;21.30;99.90
52397;DHT22;38322;53.108;6.308;2023-07-28T10:30:58;21.40;99.90
52397;DHT22;38322;53.108;6.308;2023-07-28T10:33:31;21.40;99.90
52397;DHT22;38322;53.108;6.308;2023-07-28T10:35:58;21.50;99.90
52397;DHT22;38322;53.108;6.308;2023-07-28T10:38:29;21.50;99.90
52397;DHT22;38322;53.108;6.308;2023-07-28T10:43:37;21.50;99.90
52397;DHT22;38322;53.108;6.308;2023-07-28T10:46:05;21.50;99.90
52397;DHT22;38322;53.108;6.308;2023-07-28T10:48:32;21.60;99.90
52397;DHT22;38322;53.108;6.308;2023-07-28T10:50:58;21.50;99.90
52397;DHT22;38322;53.108;6.308;2023-07-28T10:53:24;21.50;99.90
52397;DHT22;38322;53.108;6.308;2023-07-28T10:55:50;21.50;99.90
52397;DHT22;38322;53.108;6.308;2023-07-28T10:58:19;21.70;99.90
52397;DHT22;38322;53.108;6.308;2023-07-28T11:00:45;21.80;99.90
52397;DHT22;38322;53.108;6.308;2023-07-28T11:03:12;21.90;99.90
52397;DHT22;38322;53.108;6.308;2023-07-28T11:05:39;22.00;99.90
52397;DHT22;38322;53.108;6.308;2023-07-28T11:08:05;22.00;99.90
52397;DHT22;38322;53.108;6.308;2023-07-28T11:10:33;22.00;99.90
52397;DHT22;38322;53.108;6.308;2023-07-28T11:13:06;22.20;99.90
52397;DHT22;38322;53.108;6.308;2023-07-28T11:15:32;22.30;99.90
52397;DHT22;38322;53.108;6.308;2023-07-28T11:17:59;22.20;99.90
52397;DHT22;38322;53.108;6.308;2023-07-28T11:20:26;22.20;99.90
52397;DHT22;38322;53.108;6.308;2023-07-28T11:25:23;22.10;99.90
52397;DHT22;38322;53.108;6.308;2023-07-28T11:27:50;22.20;99.90
52397;DHT22;38322;53.108;6.308;2023-07-28T11:30:17;22.30;99.90
52397;DHT22;38322;53.108;6.308;2023-07-28T11:32:46;22.30;99.90
52397;DHT22;38322;53.108;6.308;2023-07-28T11:35:13;22.20;99.90
52397;DHT22;38322;53.108;6.308;2023-07-28T11:37:40;22.20;99.90
52397;DHT22;38322;53.108;6.308;2023-07-28T11:40:08;22.30;99.90
52397;DHT22;38322;53.108;6.308;2023-07-28T11:42:41;22.40;99.90
52397;DHT22;38322;53.108;6.308;2023-07-28T11:45:10;22.40;99.90
52397;DHT22;38322;53.108;6.308;2023-07-28T11:47:36;22.50;99.90
52397;DHT22;38322;53.108;6.308;2023-07-28T11:50:03;22.50;99.90
52397;DHT22;38322;53.108;6.308;2023-07-28T11:52:33;22.60;99.90
52397;DHT22;38322;53.108;6.308;2023-07-28T11:55:00;22.80;99.90
52397;DHT22;38322;53.108;6.308;2023-07-28T11:57:29;22.90;99.90
52397;DHT22;38322;53.108;6.308;2023-07-28T11:59:57;22.90;99.90
52397;DHT22;38322;53.108;6.308;2023-07-28T12:02:30;22.90;99.90
52397;DHT22;38322;53.108;6.308;2023-07-28T12:04:57;22.90;99.90
52397;DHT22;38322;53.108;6.308;2023-07-28T12:07:31;23.10;99.90
52397;DHT22;38322;53.108;6.308;2023-07-28T12:09:57;23.30;99.90
52397;DHT22;38322;53.108;6.308;2023-07-28T12:12:29;23.40;99.90
52397;DHT22;38322;53.108;6.308;2023-07-28T12:14:56;23.50;99.90
52397;DHT22;38322;53.108;6.308;2023-07-28T12:17:25;23.40;99.90
52397;DHT22;38322;53.108;6.308;2023-07-28T12:20:00;23.50;99.90
52397;DHT22;38322;53.108;6.308;2023-07-28T12:22:27;23.50;99.90
52397;DHT22;38322;53.108;6.308;2023-07-28T12:24:56;23.50;99.90
52397;DHT22;38322;53.108;6.308;2023-07-28T12:27:22;23.30;99.90
52397;DHT22;38322;53.108;6.308;2023-07-28T12:29:53;23.30;99.90
52397;DHT22;38322;53.108;6.308;2023-07-28T12:32:19;23.30;99.90
52397;DHT22;38322;53.108;6.308;2023-07-28T12:34:45;23.10;99.90
52397;DHT22;38322;53.108;6.308;2023-07-28T12:37:11;22.90;99.90
52397;DHT22;38322;53.108;6.308;2023-07-28T12:39:38;22.90;99.90
52397;DHT22;38322;53.108;6.308;2023-07-28T12:42:07;22.90;99.90
52397;DHT22;38322;53.108;6.308;2023-07-28T12:44:33;22.90;99.90
52397;DHT22;38322;53.108;6.308;2023-07-28T12:47:00;22.90;99.90
52397;DHT22;38322;53.108;6.308;2023-07-28T12:49:26;22.90;99.90
52397;DHT22;38322;53.108;6.308;2023-07-28T12:51:51;22.90;99.90
52397;DHT22;38322;53.108;6.308;2023-07-28T12:54:17;23.10;99.90
52397;DHT22;38322;53.108;6.308;2023-07-28T12:56:43;23.20;99.90
52397;DHT22;38322;53.108;6.308;2023-07-28T12:59:09;23.30;99.90
52397;DHT22;38322;53.108;6.308;2023-07-28T13:01:37;23.30;99.90
52397;DHT22;38322;53.108;6.308;2023-07-28T13:04:03;23.20;99.90
52397;DHT22;38322;53.108;6.308;2023-07-28T13:06:30;23.10;99.90
52397;DHT22;38322;53.108;6.308;2023-07-28T13:08:56;23.00;99.90
52397;DHT22;38322;53.108;6.308;2023-07-28T13:11:22;22.90;99.90
52397;DHT22;38322;53.108;6.308;2023-07-28T13:13:48;22.80;99.90
52397;DHT22;38322;53.108;6.308;2023-07-28T13:16:14;22.70;99.90
52397;DHT22;38322;53.108;6.308;2023-07-28T13:18:41;22.60;99.90
52397;DHT22;38322;53.108;6.308;2023-07-28T13:21:07;22.50;99.90
52397;DHT22;38322;53.108;6.308;2023-07-28T13:23:33;22.50;99.90
52397;DHT22;38322;53.108;6.308;2023-07-28T13:25:59;22.40;99.90
52397;DHT22;38322;53.108;6.308;2023-07-28T13:28:25;22.60;99.90
52397;DHT22;38322;53.108;6.308;2023-07-28T13:30:51;22.80;99.90
52397;DHT22;38322;53.108;6.308;2023-07-28T13:33:17;22.80;99.90
52397;DHT22;38322;53.108;6.308;2023-07-28T13:35:43;22.70;99.90
52397;DHT22;38322;53.108;6.308;2023-07-28T13:38:09;22.60;99.90
52397;DHT22;38322;53.108;6.308;2023-07-28T13:40:35;22.50;99.90
52397;DHT22;38322;53.108;6.308;2023-07-28T13:43:01;22.40;99.90
52397;DHT22;38322;53.108;6.308;2023-07-28T13:45:27;22.30;99.90
52397;DHT22;38322;53.108;6.308;2023-07-28T13:47:53;22.20;99.90
52397;DHT22;38322;53.108;6.308;2023-07-28T13:50:18;22.10;99.90
52397;DHT22;38322;53.108;6.308;2023-07-28T13:52:44;22.10;99.90
52397;DHT22;38322;53.108;6.308;2023-07-28T13:55:10;22.10;99.90
52397;DHT22;38322;53.108;6.308;2023-07-28T13:57:36;22.20;99.90
52397;DHT22;38322;53.108;6.308;2023-07-28T14:00:03;22.20;99.90
52397;DHT22;38322;53.108;6.308;2023-07-28T14:02:29;22.30;99.90
52397;DHT22;38322;53.108;6.308;2023-07-28T14:04:55;22.30;99.90
52397;DHT22;38322;53.108;6.308;2023-07-28T14:07:20;22.30;99.90
52397;DHT22;38322;53.108;6.308;2023-07-28T14:09:46;22.30;99.90
52397;DHT22;38322;53.108;6.308;2023-07-28T14:12:12;22.30;99.90
52397;DHT22;38322;53.108;6.308;2023-07-28T14:14:38;22.30;99.90
52397;DHT22;38322;53.108;6.308;2023-07-28T14:17:04;22.30;99.90
52397;DHT22;38322;53.108;6.308;2023-07-28T14:19:30;22.40;99.90
52397;DHT22;38322;53.108;6.308;2023-07-28T14:21:56;22.70;99.90
52397;DHT22;38322;53.108;6.308;2023-07-28T14:24:22;22.80;99.90
52397;DHT22;38322;53.108;6.308;2023-07-28T14:26:48;22.70;99.90
52397;DHT22;38322;53.108;6.308;2023-07-28T14:29:13;22.60;99.90
52397;DHT22;38322;53.108;6.308;2023-07-28T14:31:39;22.70;99.90
52397;DHT22;38322;53.108;6.308;2023-07-28T14:34:05;23.00;99.90
52397;DHT22;38322;53.108;6.308;2023-07-28T14:36:31;23.20;99.90
52397;DHT22;38322;53.108;6.308;2023-07-28T14:39:00;23.20;99.90
52397;DHT22;38322;53.108;6.308;2023-07-28T14:41:26;23.10;99.90
52397;DHT22;38322;53.108;6.308;2023-07-28T14:43:52;23.00;99.90
52397;DHT22;38322;53.108;6.308;2023-07-28T14:46:18;23.10;99.90
52397;DHT22;38322;53.108;6.308;2023-07-28T14:48:43;23.40;99.90
52397;DHT22;38322;53.108;6.308;2023-07-28T14:51:09;23.50;99.90
52397;DHT22;38322;53.108;6.308;2023-07-28T14:53:37;23.50;99.90
52397;DHT22;38322;53.108;6.308;2023-07-28T14:56:04;23.50;99.90
52397;DHT22;38322;53.108;6.308;2023-07-28T14:58:31;23.40;99.90
52397;DHT22;38322;53.108;6.308;2023-07-28T15:00:57;23.30;99.90
52397;DHT22;38322;53.108;6.308;2023-07-28T15:03:28;23.20;99.90
52397;DHT22;38322;53.108;6.308;2023-07-28T15:05:56;23.20;99.90
52397;DHT22;38322;53.108;6.308;2023-07-28T15:08:22;23.40;99.90
52397;DHT22;38322;53.108;6.308;2023-07-28T15:10:48;23.50;99.90
52397;DHT22;38322;53.108;6.308;2023-07-28T15:13:14;23.90;99.90
52397;DHT22;38322;53.108;6.308;2023-07-28T15:15:39;24.40;99.90
52397;DHT22;38322;53.108;6.308;2023-07-28T15:18:06;24.50;99.90
52397;DHT22;38322;53.108;6.308;2023-07-28T15:20:33;24.60;99.90
52397;DHT22;38322;53.108;6.308;2023-07-28T15:22:59;24.50;99.90
52397;DHT22;38322;53.108;6.308;2023-07-28T15:25:26;24.30;99.90
52397;DHT22;38322;53.108;6.308;2023-07-28T15:27:52;24.00;99.90
52397;DHT22;38322;53.108;6.308;2023-07-28T15:30:18;23.60;99.90
52397;DHT22;38322;53.108;6.308;2023-07-28T15:32:43;23.40;99.90
52397;DHT22;38322;53.108;6.308;2023-07-28T15:35:09;23.20;99.90
52397;DHT22;38322;53.108;6.308;2023-07-28T15:37:36;23.20;99.90
52397;DHT22;38322;53.108;6.308;2023-07-28T15:40:04;23.30;99.90
52397;DHT22;38322;53.108;6.308;2023-07-28T15:42:30;23.40;99.90
52397;DHT22;38322;53.108;6.308;2023-07-28T15:44:56;23.80;99.90
52397;DHT22;38322;53.108;6.308;2023-07-28T15:47:22;24.10;99.90
52397;DHT22;38322;53.108;6.308;2023-07-28T15:49:48;24.30;99.90
52397;DHT22;38322;53.108;6.308;2023-07-28T15:52:16;24.00;99.90
52397;DHT22;38322;53.108;6.308;2023-07-28T15:54:42;23.70;99.90
52397;DHT22;38322;53.108;6.308;2023-07-28T15:57:08;23.50;99.90
52397;DHT22;38322;53.108;6.308;2023-07-28T15:59:35;24.00;99.90
52397;DHT22;38322;53.108;6.308;2023-07-28T16:02:01;24.20;99.90
52397;DHT22;38322;53.108;6.308;2023-07-28T16:04:27;24.10;99.90
52397;DHT22;38322;53.108;6.308;2023-07-28T16:06:52;23.90;99.90
52397;DHT22;38322;53.108;6.308;2023-07-28T16:09:18;23.60;99.90
52397;DHT22;38322;53.108;6.308;2023-07-28T16:11:44;23.90;99.90
52397;DHT22;38322;53.108;6.308;2023-07-28T16:14:10;24.00;99.90
52397;DHT22;38322;53.108;6.308;2023-07-28T16:16:36;24.20;99.90
52397;DHT22;38322;53.108;6.308;2023-07-28T16:19:02;24.50;99.90
52397;DHT22;38322;53.108;6.308;2023-07-28T16:21:28;24.80;99.90
52397;DHT22;38322;53.108;6.308;2023-07-28T16:23:53;24.70;99.90
52397;DHT22;38322;53.108;6.308;2023-07-28T16:26:19;24.40;99.90
52397;DHT22;38322;53.108;6.308;2023-07-28T16:28:45;24.60;99.90
52397;DHT22;38322;53.108;6.308;2023-07-28T16:31:11;24.80;99.90
52397;DHT22;38322;53.108;6.308;2023-07-28T16:33:37;24.80;99.90
52397;DHT22;38322;53.108;6.308;2023-07-28T16:36:03;24.70;99.90
52397;DHT22;38322;53.108;6.308;2023-07-28T16:38:29;24.40;99.90
52397;DHT22;38322;53.108;6.308;2023-07-28T16:40:55;24.30;99.90
52397;DHT22;38322;53.108;6.308;2023-07-28T16:43:21;24.50;99.90
52397;DHT22;38322;53.108;6.308;2023-07-28T16:45:46;24.80;99.90
52397;DHT22;38322;53.108;6.308;2023-07-28T16:48:12;25.00;99.90
52397;DHT22;38322;53.108;6.308;2023-07-28T16:50:38;25.10;99.90
52397;DHT22;38322;53.108;6.308;2023-07-28T16:53:04;25.10;99.90
52397;DHT22;38322;53.108;6.308;2023-07-28T16:55:30;25.20;99.90
52397;DHT22;38322;53.108;6.308;2023-07-28T16:57:56;25.10;99.90
52397;DHT22;38322;53.108;6.308;2023-07-28T17:00:21;24.80;99.90
52397;DHT22;38322;53.108;6.308;2023-07-28T17:02:47;24.70;99.90
52397;DHT22;38322;53.108;6.308;2023-07-28T17:05:14;24.70;99.90
52397;DHT22;38322;53.108;6.308;2023-07-28T17:07:40;24.90;99.90
52397;DHT22;38322;53.108;6.308;2023-07-28T17:10:06;24.90;99.90
52397;DHT22;38322;53.108;6.308;2023-07-28T17:12:32;24.90;99.90
52397;DHT22;38322;53.108;6.308;2023-07-28T17:14:58;24.60;99.90
52397;DHT22;38322;53.108;6.308;2023-07-28T17:17:24;24.40;99.90
52397;DHT22;38322;53.108;6.308;2023-07-28T17:19:50;24.30;99.90
52397;DHT22;38322;53.108;6.308;2023-07-28T17:22:15;24.20;99.90
52397;DHT22;38322;53.108;6.308;2023-07-28T17:24:41;24.10;99.90
52397;DHT22;38322;53.108;6.308;2023-07-28T17:27:07;24.00;99.90
52397;DHT22;38322;53.108;6.308;2023-07-28T17:29:33;23.90;99.90
52397;DHT22;38322;53.108;6.308;2023-07-28T17:31:59;24.00;99.90
52397;DHT22;38322;53.108;6.308;2023-07-28T17:34:25;24.00;99.90
52397;DHT22;38322;53.108;6.308;2023-07-28T17:36:51;24.30;99.90
52397;DHT22;38322;53.108;6.308;2023-07-28T17:39:17;24.40;99.90
52397;DHT22;38322;53.108;6.308;2023-07-28T17:41:44;24.40;99.90
52397;DHT22;38322;53.108;6.308;2023-07-28T17:44:10;24.10;99.90
52397;DHT22;38322;53.108;6.308;2023-07-28T17:46:36;23.90;99.90
52397;DHT22;38322;53.108;6.308;2023-07-28T17:49:02;23.70;99.90
52397;DHT22;38322;53.108;6.308;2023-07-28T17:51:28;23.50;99.90
52397;DHT22;38322;53.108;6.308;2023-07-28T17:53:54;23.30;99.90
52397;DHT22;38322;53.108;6.308;2023-07-28T17:56:20;23.10;99.90
52397;DHT22;38322;53.108;6.308;2023-07-28T17:58:46;22.90;99.90
52397;DHT22;38322;53.108;6.308;2023-07-28T18:01:12;22.70;99.90
52397;DHT22;38322;53.108;6.308;2023-07-28T18:03:38;22.50;99.90
52397;DHT22;38322;53.108;6.308;2023-07-28T18:06:04;22.40;99.90
52397;DHT22;38322;53.108;6.308;2023-07-28T18:08:30;22.30;99.90
52397;DHT22;38322;53.108;6.308;2023-07-28T18:10:55;22.10;99.90
52397;DHT22;38322;53.108;6.308;2023-07-28T18:13:21;22.00;99.90
52397;DHT22;38322;53.108;6.308;2023-07-28T18:15:47;21.90;99.90
52397;DHT22;38322;53.108;6.308;2023-07-28T18:18:13;21.90;99.90
52397;DHT22;38322;53.108;6.308;2023-07-28T18:20:39;21.80;99.90
52397;DHT22;38322;53.108;6.308;2023-07-28T18:23:05;21.70;99.90
52397;DHT22;38322;53.108;6.308;2023-07-28T18:25:31;21.70;99.90
52397;DHT22;38322;53.108;6.308;2023-07-28T18:27:57;21.60;99.90
52397;DHT22;38322;53.108;6.308;2023-07-28T18:30:23;21.50;99.90
52397;DHT22;38322;53.108;6.308;2023-07-28T18:32:49;21.50;99.90
52397;DHT22;38322;53.108;6.308;2023-07-28T18:35:15;21.50;99.90
52397;DHT22;38322;53.108;6.308;2023-07-28T18:37:41;21.40;99.90
52397;DHT22;38322;53.108;6.308;2023-07-28T18:40:07;21.40;99.90
52397;DHT22;38322;53.108;6.308;2023-07-28T18:42:33;21.50;99.90
52397;DHT22;38322;53.108;6.308;2023-07-28T18:44:59;21.40;99.90
52397;DHT22;38322;53.108;6.308;2023-07-28T18:47:25;21.40;99.90
52397;DHT22;38322;53.108;6.308;2023-07-28T18:49:51;21.40;99.90
52397;DHT22;38322;53.108;6.308;2023-07-28T18:52:17;21.40;99.90
52397;DHT22;38322;53.108;6.308;2023-07-28T18:54:43;21.40;99.90
52397;DHT22;38322;53.108;6.308;2023-07-28T18:57:09;21.40;99.90
52397;DHT22;38322;53.108;6.308;2023-07-28T18:59:35;21.40;99.90
52397;DHT22;38322;53.108;6.308;2023-07-28T19:02:00;21.40;99.90
52397;DHT22;38322;53.108;6.308;2023-07-28T19:04:28;21.40;99.90
52397;DHT22;38322;53.108;6.308;2023-07-28T19:06:54;21.30;99.90
52397;DHT22;38322;53.108;6.308;2023-07-28T19:09:19;21.30;99.90
52397;DHT22;38322;53.108;6.308;2023-07-28T19:11:45;21.20;99.90
52397;DHT22;38322;53.108;6.308;2023-07-28T19:14:11;21.30;99.90
52397;DHT22;38322;53.108;6.308;2023-07-28T19:16:37;21.20;99.90
52397;DHT22;38322;53.108;6.308;2023-07-28T19:19:03;21.20;99.90
52397;DHT22;38322;53.108;6.308;2023-07-28T19:21:29;21.20;99.90
52397;DHT22;38322;53.108;6.308;2023-07-28T19:23:55;21.20;99.90
52397;DHT22;38322;53.108;6.308;2023-07-28T19:26:22;21.20;99.90
52397;DHT22;38322;53.108;6.308;2023-07-28T19:28:48;21.10;99.90
52397;DHT22;38322;53.108;6.308;2023-07-28T19:31:14;21.00;99.90
52397;DHT22;38322;53.108;6.308;2023-07-28T19:33:40;21.00;99.90
52397;DHT22;38322;53.108;6.308;2023-07-28T19:36:06;21.00;99.90
52397;DHT22;38322;53.108;6.308;2023-07-28T19:38:32;20.90;99.90
52397;DHT22;38322;53.108;6.308;2023-07-28T19:40:57;20.90;99.90
52397;DHT22;38322;53.108;6.308;2023-07-28T19:43:23;20.90;99.90
52397;DHT22;38322;53.108;6.308;2023-07-28T19:45:49;20.80;99.90
52397;DHT22;38322;53.108;6.308;2023-07-28T19:48:17;20.80;99.90
52397;DHT22;38322;53.108;6.308;2023-07-28T19:50:43;20.80;99.90
52397;DHT22;38322;53.108;6.308;2023-07-28T19:53:09;20.80;99.90
52397;DHT22;38322;53.108;6.308;2023-07-28T19:55:35;20.80;99.90
52397;DHT22;38322;53.108;6.308;2023-07-28T19:58:01;20.80;99.90
